Destinations Shannon Airport

Shannon Airport (EINN / SNN)

Flights to Shannon Airport

Flight number From ETE Dispatch
SPY-2522 EGPH Edinburgh Airport 01:35
SPY-4300 EIDW Dublin Airport 01:00

Flights from Shannon Airport

Flight number To ETE Dispatch
SPY-2523 EGPH Edinburgh Airport 01:35
SPY-4301 EIDW Dublin Airport 01:00
About

Shannon Airport facts

Shannon Airport is located in Shannon at an elevation of 14.0 meters or 46 feet.

Currently, Speedy Airlines serves 4 flights to and from Shannon Airport.

Detailed airport info

Route map

Weather

Current weather

METAR

METAR

Metar data retrieved Sunday, 21 July 2024 at 19:25 UTC

EINN 211900Z 21013KT 2000 -RADZ OVC007 16/15 Q1006 NOSIG
Wind Temperature Low clouds warning
13 kt 16c Clouds lower than 1000ft and either broken, overcast or vertical visibility